<?xml version="1.0" encoding="UTF-8" standalone="no" ?>
<gpx xmlns="http://www.topografix.com/GPX/1/1" xmlns:xsi="http://www.w3.org/2001/XMLSchema-instance" xsi:schemaLocation="http://www.topografix.com/GPX/1/1 http://www.topografix.com/GPX/1/1/gpx.xsd" version="1.1" creator="VisuGPX - https://www.visugpx.com">
  <metadata>
    <name>Circuit Bernard</name>
    <desc><![CDATA[Circuit Bernard Dist 87Km Asc 834m 3h49]]></desc>
  </metadata>
  <trk>
    <name><![CDATA[Circuit Bernard]]></name>
    <trkseg>
      <trkpt lat="45.1202" lon="4.9853">
        <ele>204.79293823242</ele>
        <time>2009-01-25T12:31:04Z</time>
      </trkpt>
      <trkpt lat="45.12577" lon="4.98273">
        <ele>211.70825195312</ele>
        <time>2009-01-25T12:32:36Z</time>
      </trkpt>
      <trkpt lat="45.12814" lon="4.98238">
        <ele>231.05627441406</ele>
        <time>2009-01-25T12:33:13Z</time>
      </trkpt>
      <trkpt lat="45.12989" lon="4.98315">
        <ele>225.21832275391</ele>
        <time>2009-01-25T12:33:41Z</time>
      </trkpt>
      <trkpt lat="45.13564" lon="4.98109">
        <ele>231.84158325195</ele>
        <time>2009-01-25T12:35:14Z</time>
      </trkpt>
      <trkpt lat="45.14392" lon="4.97699">
        <ele>241.68812561035</ele>
        <time>2009-01-25T12:37:30Z</time>
      </trkpt>
      <trkpt lat="45.14587" lon="4.97517">
        <ele>241.02296447754</ele>
        <time>2009-01-25T12:38:06Z</time>
      </trkpt>
      <trkpt lat="45.14757" lon="4.97517">
        <ele>241.96202087402</ele>
        <time>2009-01-25T12:38:33Z</time>
      </trkpt>
      <trkpt lat="45.14811" lon="4.97449">
        <ele>255.33901977539</ele>
        <time>2009-01-25T12:38:44Z</time>
      </trkpt>
      <trkpt lat="45.15152" lon="4.97397">
        <ele>245.82902526856</ele>
        <time>2009-01-25T12:39:38Z</time>
      </trkpt>
      <trkpt lat="45.15219" lon="4.97337">
        <ele>247.89276123047</ele>
        <time>2009-01-25T12:39:50Z</time>
      </trkpt>
      <trkpt lat="45.15406" lon="4.97226">
        <ele>264.41159057617</ele>
        <time>2009-01-25T12:40:22Z</time>
      </trkpt>
      <trkpt lat="45.1557" lon="4.97208">
        <ele>273.02032470703</ele>
        <time>2009-01-25T12:40:47Z</time>
      </trkpt>
      <trkpt lat="45.15697" lon="4.96865">
        <ele>275.5871887207</ele>
        <time>2009-01-25T12:41:30Z</time>
      </trkpt>
      <trkpt lat="45.15908" lon="4.96702">
        <ele>276.18450927734</ele>
        <time>2009-01-25T12:42:07Z</time>
      </trkpt>
      <trkpt lat="45.16193" lon="4.96736">
        <ele>290.68188476562</ele>
        <time>2009-01-25T12:42:52Z</time>
      </trkpt>
      <trkpt lat="45.16272" lon="4.96659">
        <ele>291.12249755859</ele>
        <time>2009-01-25T12:43:07Z</time>
      </trkpt>
      <trkpt lat="45.16302" lon="4.96504">
        <ele>297.60607910156</ele>
        <time>2009-01-25T12:43:24Z</time>
      </trkpt>
      <trkpt lat="45.16496" lon="4.96487">
        <ele>312.63827514648</ele>
        <time>2009-01-25T12:43:54Z</time>
      </trkpt>
      <trkpt lat="45.16574" lon="4.96685">
        <ele>313.90487670898</ele>
        <time>2009-01-25T12:44:19Z</time>
      </trkpt>
      <trkpt lat="45.16671" lon="4.96719">
        <ele>315.53451538086</ele>
        <time>2009-01-25T12:44:35Z</time>
      </trkpt>
      <trkpt lat="45.16768" lon="4.96856">
        <ele>311.42245483398</ele>
        <time>2009-01-25T12:44:56Z</time>
      </trkpt>
      <trkpt lat="45.16841" lon="4.96891">
        <ele>310.90087890625</ele>
        <time>2009-01-25T12:45:08Z</time>
      </trkpt>
      <trkpt lat="45.16925" lon="4.96813">
        <ele>318.25372314453</ele>
        <time>2009-01-25T12:45:24Z</time>
      </trkpt>
      <trkpt lat="45.16919" lon="4.96685">
        <ele>330.92202758789</ele>
        <time>2009-01-25T12:45:38Z</time>
      </trkpt>
      <trkpt lat="45.17004" lon="4.96522">
        <ele>329.71255493164</ele>
        <time>2009-01-25T12:46:00Z</time>
      </trkpt>
      <trkpt lat="45.1701" lon="4.96316">
        <ele>332.0827331543</ele>
        <time>2009-01-25T12:46:23Z</time>
      </trkpt>
      <trkpt lat="45.16949" lon="4.96153">
        <ele>326.17849731445</ele>
        <time>2009-01-25T12:46:43Z</time>
      </trkpt>
      <trkpt lat="45.17403" lon="4.95947">
        <ele>300.36373901367</ele>
        <time>2009-01-25T12:47:57Z</time>
      </trkpt>
      <trkpt lat="45.17482" lon="4.95766">
        <ele>285.13854980469</ele>
        <time>2009-01-25T12:48:21Z</time>
      </trkpt>
      <trkpt lat="45.17742" lon="4.95638">
        <ele>270.19647216797</ele>
        <time>2009-01-25T12:49:03Z</time>
      </trkpt>
      <trkpt lat="45.18196" lon="4.95629">
        <ele>255.90194702148</ele>
        <time>2009-01-25T12:50:14Z</time>
      </trkpt>
      <trkpt lat="45.18782" lon="4.955">
        <ele>258.00463867188</ele>
        <time>2009-01-25T12:51:46Z</time>
      </trkpt>
      <trkpt lat="45.19255" lon="4.9538">
        <ele>256.87399291992</ele>
        <time>2009-01-25T12:53:01Z</time>
      </trkpt>
      <trkpt lat="45.19654" lon="4.95183">
        <ele>264.75286865234</ele>
        <time>2009-01-25T12:54:07Z</time>
      </trkpt>
      <trkpt lat="45.20114" lon="4.95157">
        <ele>248.08636474609</ele>
        <time>2009-01-25T12:55:19Z</time>
      </trkpt>
      <trkpt lat="45.20688" lon="4.95226">
        <ele>244.51773071289</ele>
        <time>2009-01-25T12:56:48Z</time>
      </trkpt>
      <trkpt lat="45.21051" lon="4.9526">
        <ele>238.97190856934</ele>
        <time>2009-01-25T12:57:45Z</time>
      </trkpt>
      <trkpt lat="45.21117" lon="4.95406">
        <ele>246.99018859863</ele>
        <time>2009-01-25T12:58:04Z</time>
      </trkpt>
      <trkpt lat="45.2136" lon="4.9544">
        <ele>248.67858886719</ele>
        <time>2009-01-25T12:58:42Z</time>
      </trkpt>
      <trkpt lat="45.21789" lon="4.95706">
        <ele>249.76524353027</ele>
        <time>2009-01-25T12:59:55Z</time>
      </trkpt>
      <trkpt lat="45.22399" lon="4.9617">
        <ele>253.7360534668</ele>
        <time>2009-01-25T13:01:43Z</time>
      </trkpt>
      <trkpt lat="45.22593" lon="4.96256">
        <ele>253.33248901367</ele>
        <time>2009-01-25T13:02:14Z</time>
      </trkpt>
      <trkpt lat="45.22363" lon="4.9665">
        <ele>277.52514648438</ele>
        <time>2009-01-25T13:03:11Z</time>
      </trkpt>
      <trkpt lat="45.2229" lon="4.96728">
        <ele>281.91052246094</ele>
        <time>2009-01-25T13:03:25Z</time>
      </trkpt>
      <trkpt lat="45.22212" lon="4.96642">
        <ele>284.56085205078</ele>
        <time>2009-01-25T13:03:40Z</time>
      </trkpt>
      <trkpt lat="45.22121" lon="4.96736">
        <ele>287.30261230469</ele>
        <time>2009-01-25T13:03:58Z</time>
      </trkpt>
      <trkpt lat="45.22157" lon="4.96839">
        <ele>294.75213623047</ele>
        <time>2009-01-25T13:04:10Z</time>
      </trkpt>
      <trkpt lat="45.21964" lon="4.96891">
        <ele>308.52447509766</ele>
        <time>2009-01-25T13:04:41Z</time>
      </trkpt>
      <trkpt lat="45.21873" lon="4.97037">
        <ele>322.83493041992</ele>
        <time>2009-01-25T13:05:02Z</time>
      </trkpt>
      <trkpt lat="45.21795" lon="4.9732">
        <ele>331.9391784668</ele>
        <time>2009-01-25T13:05:36Z</time>
      </trkpt>
      <trkpt lat="45.21855" lon="4.97535">
        <ele>343.46905517578</ele>
        <time>2009-01-25T13:06:01Z</time>
      </trkpt>
      <trkpt lat="45.21777" lon="4.97964">
        <ele>351.18838500977</ele>
        <time>2009-01-25T13:06:50Z</time>
      </trkpt>
      <trkpt lat="45.21758" lon="4.98453">
        <ele>362.68725585938</ele>
        <time>2009-01-25T13:07:43Z</time>
      </trkpt>
      <trkpt lat="45.21721" lon="4.98539">
        <ele>355.71737670898</ele>
        <time>2009-01-25T13:07:54Z</time>
      </trkpt>
      <trkpt lat="45.21891" lon="4.98659">
        <ele>360.9873046875</ele>
        <time>2009-01-25T13:08:24Z</time>
      </trkpt>
      <trkpt lat="45.21969" lon="4.98848">
        <ele>344.53576660156</ele>
        <time>2009-01-25T13:08:48Z</time>
      </trkpt>
      <trkpt lat="45.21975" lon="4.99011">
        <ele>353.75344848633</ele>
        <time>2009-01-25T13:09:06Z</time>
      </trkpt>
      <trkpt lat="45.22114" lon="4.99054">
        <ele>365.63726806641</ele>
        <time>2009-01-25T13:09:28Z</time>
      </trkpt>
      <trkpt lat="45.2212" lon="4.992">
        <ele>362.15075683594</ele>
        <time>2009-01-25T13:09:44Z</time>
      </trkpt>
      <trkpt lat="45.22398" lon="4.99757">
        <ele>354.62408447266</ele>
        <time>2009-01-25T13:10:59Z</time>
      </trkpt>
      <trkpt lat="45.22181" lon="4.99929">
        <ele>355.60983276367</ele>
        <time>2009-01-25T13:11:38Z</time>
      </trkpt>
      <trkpt lat="45.22532" lon="5.00307">
        <ele>394.24673461914</ele>
        <time>2009-01-25T13:12:46Z</time>
      </trkpt>
      <trkpt lat="45.22429" lon="5.00461">
        <ele>384.38812255859</ele>
        <time>2009-01-25T13:13:09Z</time>
      </trkpt>
      <trkpt lat="45.22411" lon="5.00573">
        <ele>386.8967590332</ele>
        <time>2009-01-25T13:13:22Z</time>
      </trkpt>
      <trkpt lat="45.22326" lon="5.00693">
        <ele>366.39379882812</ele>
        <time>2009-01-25T13:13:41Z</time>
      </trkpt>
      <trkpt lat="45.22465" lon="5.00899">
        <ele>386.34533691406</ele>
        <time>2009-01-25T13:14:12Z</time>
      </trkpt>
      <trkpt lat="45.22689" lon="5.0095">
        <ele>385.34820556641</ele>
        <time>2009-01-25T13:14:47Z</time>
      </trkpt>
      <trkpt lat="45.229" lon="5.00847">
        <ele>382.7802734375</ele>
        <time>2009-01-25T13:15:22Z</time>
      </trkpt>
      <trkpt lat="45.23305" lon="5.00933">
        <ele>358.60272216797</ele>
        <time>2009-01-25T13:16:26Z</time>
      </trkpt>
      <trkpt lat="45.23849" lon="5.01079">
        <ele>360</ele>
        <time>2009-01-25T13:17:52Z</time>
      </trkpt>
      <trkpt lat="45.24206" lon="5.01028">
        <ele>340.73480224609</ele>
        <time>2009-01-25T13:18:48Z</time>
      </trkpt>
      <trkpt lat="45.24218" lon="5.00856">
        <ele>336.60983276367</ele>
        <time>2009-01-25T13:19:07Z</time>
      </trkpt>
      <trkpt lat="45.24254" lon="5.01002">
        <ele>332.16943359375</ele>
        <time>2009-01-25T13:19:24Z</time>
      </trkpt>
      <trkpt lat="45.24406" lon="5.01036">
        <ele>300.4098815918</ele>
        <time>2009-01-25T13:19:48Z</time>
      </trkpt>
      <trkpt lat="45.24448" lon="5.01148">
        <ele>297.93859863281</ele>
        <time>2009-01-25T13:20:02Z</time>
      </trkpt>
      <trkpt lat="45.24297" lon="5.01337">
        <ele>317.11373901367</ele>
        <time>2009-01-25T13:20:33Z</time>
      </trkpt>
      <trkpt lat="45.24478" lon="5.01388">
        <ele>297.99557495117</ele>
        <time>2009-01-25T13:21:02Z</time>
      </trkpt>
      <trkpt lat="45.24587" lon="5.01972">
        <ele>319.61679077148</ele>
        <time>2009-01-25T13:22:08Z</time>
      </trkpt>
      <trkpt lat="45.24841" lon="5.02538">
        <ele>299</ele>
        <time>2009-01-25T13:23:21Z</time>
      </trkpt>
      <trkpt lat="45.24889" lon="5.02513">
        <ele>298.99795532227</ele>
        <time>2009-01-25T13:23:29Z</time>
      </trkpt>
      <trkpt lat="45.24931" lon="5.02702">
        <ele>302.32110595703</ele>
        <time>2009-01-25T13:23:51Z</time>
      </trkpt>
      <trkpt lat="45.25064" lon="5.02813">
        <ele>298</ele>
        <time>2009-01-25T13:24:15Z</time>
      </trkpt>
      <trkpt lat="45.25469" lon="5.02418">
        <ele>300</ele>
        <time>2009-01-25T13:25:32Z</time>
      </trkpt>
      <trkpt lat="45.25771" lon="5.02882">
        <ele>316.35873413086</ele>
        <time>2009-01-25T13:26:41Z</time>
      </trkpt>
      <trkpt lat="45.26321" lon="5.0295">
        <ele>354.23010253906</ele>
        <time>2009-01-25T13:28:07Z</time>
      </trkpt>
      <trkpt lat="45.26538" lon="5.0289">
        <ele>380.57659912109</ele>
        <time>2009-01-25T13:28:41Z</time>
      </trkpt>
      <trkpt lat="45.27069" lon="5.03131">
        <ele>417.97207641602</ele>
        <time>2009-01-25T13:30:08Z</time>
      </trkpt>
      <trkpt lat="45.27294" lon="5.03474">
        <ele>408.05477905273</ele>
        <time>2009-01-25T13:30:59Z</time>
      </trkpt>
      <trkpt lat="45.282" lon="5.03422">
        <ele>420.16683959961</ele>
        <time>2009-01-25T13:33:21Z</time>
      </trkpt>
      <trkpt lat="45.28635" lon="5.03577">
        <ele>374.73666381836</ele>
        <time>2009-01-25T13:34:30Z</time>
      </trkpt>
      <trkpt lat="45.2849" lon="5.03903">
        <ele>397.11672973633</ele>
        <time>2009-01-25T13:35:13Z</time>
      </trkpt>
      <trkpt lat="45.28852" lon="5.038">
        <ele>355.99649047852</ele>
        <time>2009-01-25T13:36:10Z</time>
      </trkpt>
      <trkpt lat="45.28985" lon="5.03998">
        <ele>349.18408203125</ele>
        <time>2009-01-25T13:36:40Z</time>
      </trkpt>
      <trkpt lat="45.28943" lon="5.04143">
        <ele>346.99905395508</ele>
        <time>2009-01-25T13:36:57Z</time>
      </trkpt>
      <trkpt lat="45.2878" lon="5.04298">
        <ele>356.98077392578</ele>
        <time>2009-01-25T13:37:28Z</time>
      </trkpt>
      <trkpt lat="45.28767" lon="5.04375">
        <ele>354.92788696289</ele>
        <time>2009-01-25T13:37:37Z</time>
      </trkpt>
      <trkpt lat="45.29166" lon="5.04246">
        <ele>312.09454345703</ele>
        <time>2009-01-25T13:38:40Z</time>
      </trkpt>
      <trkpt lat="45.291" lon="5.04504">
        <ele>325.45367431641</ele>
        <time>2009-01-25T13:39:10Z</time>
      </trkpt>
      <trkpt lat="45.29269" lon="5.05294">
        <ele>312.75451660156</ele>
        <time>2009-01-25T13:40:41Z</time>
      </trkpt>
      <trkpt lat="45.29141" lon="5.05508">
        <ele>326.93957519531</ele>
        <time>2009-01-25T13:41:12Z</time>
      </trkpt>
      <trkpt lat="45.28864" lon="5.055">
        <ele>357.65771484375</ele>
        <time>2009-01-25T13:41:55Z</time>
      </trkpt>
      <trkpt lat="45.28598" lon="5.05482">
        <ele>360</ele>
        <time>2009-01-25T13:42:36Z</time>
      </trkpt>
      <trkpt lat="45.28423" lon="5.05585">
        <ele>358.98336791992</ele>
        <time>2009-01-25T13:43:06Z</time>
      </trkpt>
      <trkpt lat="45.28749" lon="5.05603">
        <ele>356.30645751953</ele>
        <time>2009-01-25T13:43:56Z</time>
      </trkpt>
      <trkpt lat="45.2849" lon="5.05697">
        <ele>361.88662719727</ele>
        <time>2009-01-25T13:44:38Z</time>
      </trkpt>
      <trkpt lat="45.28423" lon="5.06032">
        <ele>398.32562255859</ele>
        <time>2009-01-25T13:45:16Z</time>
      </trkpt>
      <trkpt lat="45.28206" lon="5.06444">
        <ele>419</ele>
        <time>2009-01-25T13:46:13Z</time>
      </trkpt>
      <trkpt lat="45.28055" lon="5.06976">
        <ele>449</ele>
        <time>2009-01-25T13:47:15Z</time>
      </trkpt>
      <trkpt lat="45.27988" lon="5.07105">
        <ele>447.13385009766</ele>
        <time>2009-01-25T13:47:33Z</time>
      </trkpt>
      <trkpt lat="45.27868" lon="5.07096">
        <ele>443.48803710938</ele>
        <time>2009-01-25T13:47:52Z</time>
      </trkpt>
      <trkpt lat="45.2785" lon="5.07439">
        <ele>431.17880249023</ele>
        <time>2009-01-25T13:48:29Z</time>
      </trkpt>
      <trkpt lat="45.27819" lon="5.07645">
        <ele>418.08050537109</ele>
        <time>2009-01-25T13:48:53Z</time>
      </trkpt>
      <trkpt lat="45.27976" lon="5.0774">
        <ele>432.45666503906</ele>
        <time>2009-01-25T13:49:19Z</time>
      </trkpt>
      <trkpt lat="45.27765" lon="5.0792">
        <ele>398.31909179688</ele>
        <time>2009-01-25T13:49:57Z</time>
      </trkpt>
      <trkpt lat="45.27656" lon="5.08564">
        <ele>380.43960571289</ele>
        <time>2009-01-25T13:51:10Z</time>
      </trkpt>
      <trkpt lat="45.27638" lon="5.08993">
        <ele>387.63400268555</ele>
        <time>2009-01-25T13:51:57Z</time>
      </trkpt>
      <trkpt lat="45.27414" lon="5.09242">
        <ele>380.29443359375</ele>
        <time>2009-01-25T13:52:41Z</time>
      </trkpt>
      <trkpt lat="45.273" lon="5.09611">
        <ele>411.63427734375</ele>
        <time>2009-01-25T13:53:25Z</time>
      </trkpt>
      <trkpt lat="45.27064" lon="5.10091">
        <ele>441.38244628906</ele>
        <time>2009-01-25T13:54:30Z</time>
      </trkpt>
      <trkpt lat="45.26995" lon="5.10478">
        <ele>453.70751953125</ele>
        <time>2009-01-25T13:55:13Z</time>
      </trkpt>
      <trkpt lat="45.27088" lon="5.10887">
        <ele>438.47814941406</ele>
        <time>2009-01-25T13:56:00Z</time>
      </trkpt>
      <trkpt lat="45.27347" lon="5.11928">
        <ele>412.40002441406</ele>
        <time>2009-01-25T13:58:01Z</time>
      </trkpt>
      <trkpt lat="45.27642" lon="5.1203">
        <ele>441.01086425781</ele>
        <time>2009-01-25T13:58:49Z</time>
      </trkpt>
      <trkpt lat="45.27778" lon="5.12091">
        <ele>450.35870361328</ele>
        <time>2009-01-25T13:59:11Z</time>
      </trkpt>
      <trkpt lat="45.27843" lon="5.12183">
        <ele>455.28201293945</ele>
        <time>2009-01-25T13:59:25Z</time>
      </trkpt>
      <trkpt lat="45.28273" lon="5.12663">
        <ele>470</ele>
        <time>2009-01-25T14:00:50Z</time>
      </trkpt>
      <trkpt lat="45.28812" lon="5.1302">
        <ele>472</ele>
        <time>2009-01-25T14:02:23Z</time>
      </trkpt>
      <trkpt lat="45.2892" lon="5.13326">
        <ele>474.76123046875</ele>
        <time>2009-01-25T14:03:00Z</time>
      </trkpt>
      <trkpt lat="45.29164" lon="5.13449">
        <ele>465.31967163086</ele>
        <time>2009-01-25T14:03:41Z</time>
      </trkpt>
      <trkpt lat="45.2925" lon="5.13643">
        <ele>467.00164794922</ele>
        <time>2009-01-25T14:04:06Z</time>
      </trkpt>
      <trkpt lat="45.29322" lon="5.13816">
        <ele>462.029296875</ele>
        <time>2009-01-25T14:04:28Z</time>
      </trkpt>
      <trkpt lat="45.29659" lon="5.13847">
        <ele>437.14636230469</ele>
        <time>2009-01-25T14:05:20Z</time>
      </trkpt>
      <trkpt lat="45.29926" lon="5.14765">
        <ele>449.11734008789</ele>
        <time>2009-01-25T14:07:09Z</time>
      </trkpt>
      <trkpt lat="45.30083" lon="5.15551">
        <ele>413.19320678711</ele>
        <time>2009-01-25T14:08:39Z</time>
      </trkpt>
      <trkpt lat="45.30155" lon="5.15776">
        <ele>396.24035644531</ele>
        <time>2009-01-25T14:09:06Z</time>
      </trkpt>
      <trkpt lat="45.30478" lon="5.15704">
        <ele>376.28216552734</ele>
        <time>2009-01-25T14:09:57Z</time>
      </trkpt>
      <trkpt lat="45.31275" lon="5.16317">
        <ele>380.09362792969</ele>
        <time>2009-01-25T14:12:18Z</time>
      </trkpt>
      <trkpt lat="45.31067" lon="5.16664">
        <ele>383.6340637207</ele>
        <time>2009-01-25T14:13:08Z</time>
      </trkpt>
      <trkpt lat="45.30816" lon="5.17164">
        <ele>383.72778320312</ele>
        <time>2009-01-25T14:14:15Z</time>
      </trkpt>
      <trkpt lat="45.30744" lon="5.18266">
        <ele>400.33294677734</ele>
        <time>2009-01-25T14:16:16Z</time>
      </trkpt>
      <trkpt lat="45.30866" lon="5.18603">
        <ele>408.82904052734</ele>
        <time>2009-01-25T14:16:58Z</time>
      </trkpt>
      <trkpt lat="45.3129" lon="5.19113">
        <ele>385.11608886719</ele>
        <time>2009-01-25T14:18:24Z</time>
      </trkpt>
      <trkpt lat="45.31347" lon="5.19583">
        <ele>385.38732910156</ele>
        <time>2009-01-25T14:19:16Z</time>
      </trkpt>
      <trkpt lat="45.31326" lon="5.20002">
        <ele>380.41143798828</ele>
        <time>2009-01-25T14:20:02Z</time>
      </trkpt>
      <trkpt lat="45.31491" lon="5.20287">
        <ele>341.05282592773</ele>
        <time>2009-01-25T14:20:43Z</time>
      </trkpt>
      <trkpt lat="45.31569" lon="5.2043">
        <ele>340</ele>
        <time>2009-01-25T14:21:03Z</time>
      </trkpt>
      <trkpt lat="45.31332" lon="5.20747">
        <ele>377.09484863281</ele>
        <time>2009-01-25T14:21:53Z</time>
      </trkpt>
      <trkpt lat="45.31038" lon="5.21206">
        <ele>380</ele>
        <time>2009-01-25T14:23:01Z</time>
      </trkpt>
      <trkpt lat="45.30636" lon="5.21543">
        <ele>392.18383789062</ele>
        <time>2009-01-25T14:24:14Z</time>
      </trkpt>
      <trkpt lat="45.30363" lon="5.21951">
        <ele>400.25674438477</ele>
        <time>2009-01-25T14:25:16Z</time>
      </trkpt>
      <trkpt lat="45.30062" lon="5.22155">
        <ele>426.06997680664</ele>
        <time>2009-01-25T14:26:07Z</time>
      </trkpt>
      <trkpt lat="45.29811" lon="5.2239">
        <ele>436.48352050781</ele>
        <time>2009-01-25T14:26:54Z</time>
      </trkpt>
      <trkpt lat="45.2966" lon="5.22696">
        <ele>440</ele>
        <time>2009-01-25T14:27:35Z</time>
      </trkpt>
      <trkpt lat="45.29545" lon="5.23359">
        <ele>465.23886108398</ele>
        <time>2009-01-25T14:28:50Z</time>
      </trkpt>
      <trkpt lat="45.29509" lon="5.2388">
        <ele>474.32299804688</ele>
        <time>2009-01-25T14:29:47Z</time>
      </trkpt>
      <trkpt lat="45.29423" lon="5.23543">
        <ele>471.85989379883</ele>
        <time>2009-01-25T14:30:27Z</time>
      </trkpt>
      <trkpt lat="45.29308" lon="5.23502">
        <ele>479</ele>
        <time>2009-01-25T14:30:45Z</time>
      </trkpt>
      <trkpt lat="45.28949" lon="5.23666">
        <ele>499</ele>
        <time>2009-01-25T14:31:44Z</time>
      </trkpt>
      <trkpt lat="45.28654" lon="5.2389">
        <ele>506.53814697266</ele>
        <time>2009-01-25T14:32:36Z</time>
      </trkpt>
      <trkpt lat="45.2892" lon="5.23819">
        <ele>502.09606933594</ele>
        <time>2009-01-25T14:33:18Z</time>
      </trkpt>
      <trkpt lat="45.29107" lon="5.23951">
        <ele>534.900390625</ele>
        <time>2009-01-25T14:33:51Z</time>
      </trkpt>
      <trkpt lat="45.28934" lon="5.24125">
        <ele>548.88317871094</ele>
        <time>2009-01-25T14:34:24Z</time>
      </trkpt>
      <trkpt lat="45.28654" lon="5.24452">
        <ele>580.68530273438</ele>
        <time>2009-01-25T14:35:20Z</time>
      </trkpt>
      <trkpt lat="45.28482" lon="5.24625">
        <ele>592.87622070312</ele>
        <time>2009-01-25T14:35:53Z</time>
      </trkpt>
      <trkpt lat="45.28252" lon="5.2487">
        <ele>609.25085449219</ele>
        <time>2009-01-25T14:36:37Z</time>
      </trkpt>
      <trkpt lat="45.27886" lon="5.25084">
        <ele>618</ele>
        <time>2009-01-25T14:37:39Z</time>
      </trkpt>
      <trkpt lat="45.27527" lon="5.25044">
        <ele>610</ele>
        <time>2009-01-25T14:38:35Z</time>
      </trkpt>
      <trkpt lat="45.27226" lon="5.24982">
        <ele>610</ele>
        <time>2009-01-25T14:39:23Z</time>
      </trkpt>
      <trkpt lat="45.26816" lon="5.24789">
        <ele>585.52508544922</ele>
        <time>2009-01-25T14:40:30Z</time>
      </trkpt>
      <trkpt lat="45.26701" lon="5.24554">
        <ele>581.60510253906</ele>
        <time>2009-01-25T14:41:01Z</time>
      </trkpt>
      <trkpt lat="45.26536" lon="5.24523">
        <ele>558.71325683594</ele>
        <time>2009-01-25T14:41:27Z</time>
      </trkpt>
      <trkpt lat="45.2632" lon="5.23778">
        <ele>553.58770751953</ele>
        <time>2009-01-25T14:42:55Z</time>
      </trkpt>
      <trkpt lat="45.2609" lon="5.23441">
        <ele>512.9423828125</ele>
        <time>2009-01-25T14:43:47Z</time>
      </trkpt>
      <trkpt lat="45.25961" lon="5.23502">
        <ele>491</ele>
        <time>2009-01-25T14:44:08Z</time>
      </trkpt>
      <trkpt lat="45.26004" lon="5.23778">
        <ele>498.13668823242</ele>
        <time>2009-01-25T14:44:39Z</time>
      </trkpt>
      <trkpt lat="45.25817" lon="5.24207">
        <ele>501.73797607422</ele>
        <time>2009-01-25T14:45:34Z</time>
      </trkpt>
      <trkpt lat="45.25552" lon="5.24635">
        <ele>528.49255371094</ele>
        <time>2009-01-25T14:46:37Z</time>
      </trkpt>
      <trkpt lat="45.25092" lon="5.24809">
        <ele>527.35943603516</ele>
        <time>2009-01-25T14:47:51Z</time>
      </trkpt>
      <trkpt lat="45.24287" lon="5.24952">
        <ele>539</ele>
        <time>2009-01-25T14:49:57Z</time>
      </trkpt>
      <trkpt lat="45.23885" lon="5.24738">
        <ele>540</ele>
        <time>2009-01-25T14:51:04Z</time>
      </trkpt>
      <trkpt lat="45.22598" lon="5.23625">
        <ele>580.29669189453</ele>
        <time>2009-01-25T14:54:59Z</time>
      </trkpt>
      <trkpt lat="45.22519" lon="5.23819">
        <ele>576.52844238281</ele>
        <time>2009-01-25T14:55:23Z</time>
      </trkpt>
      <trkpt lat="45.22296" lon="5.23737">
        <ele>588.25128173828</ele>
        <time>2009-01-25T14:55:59Z</time>
      </trkpt>
      <trkpt lat="45.22267" lon="5.23604">
        <ele>597.57788085938</ele>
        <time>2009-01-25T14:56:14Z</time>
      </trkpt>
      <trkpt lat="45.21922" lon="5.23309">
        <ele>616.97601318359</ele>
        <time>2009-01-25T14:57:17Z</time>
      </trkpt>
      <trkpt lat="45.21671" lon="5.22655">
        <ele>624.84710693359</ele>
        <time>2009-01-25T14:58:39Z</time>
      </trkpt>
      <trkpt lat="45.21275" lon="5.22135">
        <ele>629.74340820312</ele>
        <time>2009-01-25T15:00:03Z</time>
      </trkpt>
      <trkpt lat="45.21003" lon="5.22114">
        <ele>615.30712890625</ele>
        <time>2009-01-25T15:00:45Z</time>
      </trkpt>
      <trkpt lat="45.20686" lon="5.21094">
        <ele>573.79486083984</ele>
        <time>2009-01-25T15:02:47Z</time>
      </trkpt>
      <trkpt lat="45.20586" lon="5.209">
        <ele>565.0048828125</ele>
        <time>2009-01-25T15:03:14Z</time>
      </trkpt>
      <trkpt lat="45.20499" lon="5.20757">
        <ele>559.11505126953</ele>
        <time>2009-01-25T15:03:35Z</time>
      </trkpt>
      <trkpt lat="45.20197" lon="5.20798">
        <ele>539.22277832031</ele>
        <time>2009-01-25T15:04:22Z</time>
      </trkpt>
      <trkpt lat="45.19773" lon="5.20389">
        <ele>515.6533203125</ele>
        <time>2009-01-25T15:05:42Z</time>
      </trkpt>
      <trkpt lat="45.19759" lon="5.20145">
        <ele>514.1279296875</ele>
        <time>2009-01-25T15:06:09Z</time>
      </trkpt>
      <trkpt lat="45.19614" lon="5.1992">
        <ele>481.42016601562</ele>
        <time>2009-01-25T15:06:42Z</time>
      </trkpt>
      <trkpt lat="45.19686" lon="5.18328">
        <ele>453.55639648438</ele>
        <time>2009-01-25T15:09:37Z</time>
      </trkpt>
      <trkpt lat="45.19744" lon="5.18001">
        <ele>442.81994628906</ele>
        <time>2009-01-25T15:10:14Z</time>
      </trkpt>
      <trkpt lat="45.19902" lon="5.17103">
        <ele>427.69787597656</ele>
        <time>2009-01-25T15:11:56Z</time>
      </trkpt>
      <trkpt lat="45.19867" lon="5.16807">
        <ele>421.6125793457</ele>
        <time>2009-01-25T15:12:28Z</time>
      </trkpt>
      <trkpt lat="45.19787" lon="5.16592">
        <ele>423.24322509766</ele>
        <time>2009-01-25T15:12:55Z</time>
      </trkpt>
      <trkpt lat="45.19924" lon="5.15929">
        <ele>405.32122802734</ele>
        <time>2009-01-25T15:14:11Z</time>
      </trkpt>
      <trkpt lat="45.19888" lon="5.15551">
        <ele>405.94479370117</ele>
        <time>2009-01-25T15:14:53Z</time>
      </trkpt>
      <trkpt lat="45.19729" lon="5.15">
        <ele>422.52935791016</ele>
        <time>2009-01-25T15:15:58Z</time>
      </trkpt>
      <trkpt lat="45.19643" lon="5.13561">
        <ele>367.87994384766</ele>
        <time>2009-01-25T15:18:37Z</time>
      </trkpt>
      <trkpt lat="45.19679" lon="5.13346">
        <ele>363.70486450195</ele>
        <time>2009-01-25T15:19:01Z</time>
      </trkpt>
      <trkpt lat="45.19708" lon="5.12693">
        <ele>358.37585449219</ele>
        <time>2009-01-25T15:20:13Z</time>
      </trkpt>
      <trkpt lat="45.19564" lon="5.11795">
        <ele>358.94415283203</ele>
        <time>2009-01-25T15:21:54Z</time>
      </trkpt>
      <trkpt lat="45.1891" lon="5.09621">
        <ele>328.15216064453</ele>
        <time>2009-01-25T15:26:13Z</time>
      </trkpt>
      <trkpt lat="45.18579" lon="5.08662">
        <ele>315.88101196289</ele>
        <time>2009-01-25T15:28:10Z</time>
      </trkpt>
      <trkpt lat="45.17435" lon="5.0709">
        <ele>307.86102294922</ele>
        <time>2009-01-25T15:32:18Z</time>
      </trkpt>
      <trkpt lat="45.16967" lon="5.06804">
        <ele>304.62689208984</ele>
        <time>2009-01-25T15:33:37Z</time>
      </trkpt>
      <trkpt lat="45.16737" lon="5.06508">
        <ele>294.5657043457</ele>
        <time>2009-01-25T15:34:26Z</time>
      </trkpt>
      <trkpt lat="45.16615" lon="5.05865">
        <ele>301.25555419922</ele>
        <time>2009-01-25T15:35:39Z</time>
      </trkpt>
      <trkpt lat="45.16291" lon="5.05242">
        <ele>281.28405761719</ele>
        <time>2009-01-25T15:37:04Z</time>
      </trkpt>
      <trkpt lat="45.16183" lon="5.03405">
        <ele>279.85635375977</ele>
        <time>2009-01-25T15:40:26Z</time>
      </trkpt>
      <trkpt lat="45.14564" lon="5.01231">
        <ele>240.85316467285</ele>
        <time>2009-01-25T15:46:13Z</time>
      </trkpt>
      <trkpt lat="45.14449" lon="5.01006">
        <ele>278.76556396484</ele>
        <time>2009-01-25T15:46:44Z</time>
      </trkpt>
      <trkpt lat="45.13686" lon="5.00567">
        <ele>239.69561767578</ele>
        <time>2009-01-25T15:48:52Z</time>
      </trkpt>
      <trkpt lat="45.12857" lon="5.00169">
        <ele>230.54930114746</ele>
        <time>2009-01-25T15:51:08Z</time>
      </trkpt>
      <trkpt lat="45.1239" lon="4.99577">
        <ele>219.79658508301</ele>
        <time>2009-01-25T15:52:46Z</time>
      </trkpt>
      <trkpt lat="45.1213" lon="4.98822">
        <ele>205.33377075195</ele>
        <time>2009-01-25T15:54:18Z</time>
      </trkpt>
    </trkseg>
  </trk>
</gpx>